Time;durP1;ratioP1;P1;durP2;ratioP2;P2;SDS_P1;SDS_P2;PMS_P1;PMS_P2;Temp;Humidity;BMP_temperature;BMP_pressure;BME280_temperature;BME280_humidity;BME280_pressure;Samples;Min_cycle;Max_cycle;Signal;HPM_P1;HPM_P2
2023/12/18 00:02:13;;;;;;;3.75;2.47;;;22.30;52.30;;;;;;5000092;28;20050;-67
2023/12/18 00:04:39;;;;;;;4.70;2.67;;;22.30;52.40;;;;;;4981210;28;20154;-66
2023/12/18 00:07:04;;;;;;;4.15;2.53;;;22.30;52.40;;;;;;4981130;28;20526;-67
2023/12/18 00:09:30;;;;;;;3.83;2.38;;;22.20;52.40;;;;;;4981713;28;20030;-68
2023/12/18 00:11:55;;;;;;;3.80;2.20;;;22.20;52.40;;;;;;4982080;28;20103;-66
2023/12/18 00:14:21;;;;;;;4.25;2.28;;;22.20;52.50;;;;;;4980638;28;20045;-66
2023/12/18 00:16:47;;;;;;;3.53;1.98;;;22.20;52.50;;;;;;4979595;28;20164;-67
2023/12/18 00:19:12;;;;;;;3.00;2.00;;;22.20;52.50;;;;;;4982486;28;20022;-67
2023/12/18 00:21:38;;;;;;;3.00;2.10;;;22.20;52.60;;;;;;4982599;28;20026;-68
2023/12/18 00:24:04;;;;;;;2.92;1.98;;;22.10;52.60;;;;;;4981166;28;20026;-68
2023/12/18 00:26:29;;;;;;;4.38;2.33;;;22.10;52.60;;;;;;4984006;28;20034;-69
2023/12/18 00:28:55;;;;;;;3.83;2.28;;;22.10;52.60;;;;;;4983131;28;20029;-68
2023/12/18 00:31:21;;;;;;;2.88;2.10;;;22.10;52.70;;;;;;4981942;28;20035;-68
2023/12/18 00:33:46;;;;;;;3.95;2.38;;;22.00;52.60;;;;;;4980964;28;20053;-69
2023/12/18 00:36:12;;;;;;;3.33;2.10;;;22.00;52.70;;;;;;4981822;28;20108;-68
2023/12/18 00:38:37;;;;;;;3.42;1.90;;;22.00;52.70;;;;;;4979440;28;20050;-71
2023/12/18 00:41:03;;;;;;;3.28;2.00;;;22.00;52.70;;;;;;4984346;28;20451;-68
2023/12/18 00:43:29;;;;;;;3.17;1.98;;;22.00;52.70;;;;;;4993165;28;20022;-69
2023/12/18 00:45:55;;;;;;;3.42;2.33;;;21.90;52.70;;;;;;4979799;28;20422;-68
2023/12/18 00:48:21;;;;;;;3.50;1.90;;;21.90;52.80;;;;;;4982608;28;20025;-68
2023/12/18 00:50:46;;;;;;;3.33;2.00;;;21.90;52.80;;;;;;4982272;28;20031;-68
2023/12/18 00:53:16;;;;;;;3.30;2.20;;;21.90;52.90;;;;;;4983653;28;20026;-68
2023/12/18 00:55:42;;;;;;;3.15;1.90;;;21.80;52.80;;;;;;4979799;28;20022;-68
2023/12/18 00:58:08;;;;;;;2.80;2.00;;;21.80;52.90;;;;;;4979867;28;20356;-68
2023/12/18 01:00:34;;;;;;;3.17;1.90;;;21.80;52.90;;;;;;4994791;28;20037;-68
2023/12/18 01:02:59;;;;;;;2.50;1.80;;;21.80;52.90;;;;;;4980187;28;20034;-70
2023/12/18 01:05:25;;;;;;;2.50;1.80;;;21.80;53.00;;;;;;4980392;28;20129;-70
2023/12/18 01:07:51;;;;;;;3.58;2.10;;;21.80;53.00;;;;;;4979392;28;20029;-70
2023/12/18 01:10:16;;;;;;;3.17;1.90;;;21.80;53.00;;;;;;4979418;28;20089;-70
2023/12/18 01:12:42;;;;;;;2.90;1.90;;;21.70;53.00;;;;;;4979141;28;20039;-70
2023/12/18 01:15:08;;;;;;;3.35;1.98;;;21.70;53.10;;;;;;4982511;28;20018;-70
2023/12/18 01:17:33;;;;;;;3.08;1.80;;;21.70;53.00;;;;;;4981016;28;20034;-70
2023/12/18 01:19:59;;;;;;;2.90;1.70;;;21.70;53.10;;;;;;4980202;28;20487;-70
2023/12/18 01:22:25;;;;;;;2.42;1.60;;;21.70;53.10;;;;;;4981123;28;20037;-70
2023/12/18 01:24:50;;;;;;;3.40;1.90;;;21.60;53.10;;;;;;4980459;28;20117;-70
2023/12/18 01:27:16;;;;;;;2.15;1.55;;;21.60;53.20;;;;;;4978881;28;20423;-70
2023/12/18 01:29:41;;;;;;;2.65;1.75;;;21.60;53.20;;;;;;4982588;28;20026;-70
2023/12/18 01:32:08;;;;;;;3.30;2.00;;;21.60;53.20;;;;;;4979464;28;20077;-69
2023/12/18 01:34:34;;;;;;;2.53;1.60;;;21.60;53.80;;;;;;4977633;28;20034;-70
2023/12/18 01:36:59;;;;;;;2.42;1.63;;;21.50;53.20;;;;;;4981139;28;20431;-70
2023/12/18 01:39:25;;;;;;;2.50;1.48;;;21.60;53.30;;;;;;4979233;28;20042;-70
2023/12/18 01:41:51;;;;;;;2.67;1.75;;;21.50;53.30;;;;;;4979547;28;20041;-66
2023/12/18 01:44:16;;;;;;;2.15;1.42;;;21.50;53.30;;;;;;4980154;28;20688;-67
2023/12/18 01:46:44;;;;;;;3.05;1.75;;;21.50;53.30;;;;;;4981561;28;20035;-67
2023/12/18 01:49:09;;;;;;;2.28;1.60;;;21.50;53.40;;;;;;4982573;28;20509;-66
2023/12/18 01:51:36;;;;;;;2.17;1.40;;;21.50;53.40;;;;;;4983058;28;20022;-67
2023/12/18 01:54:03;;;;;;;2.45;1.70;;;21.50;53.40;;;;;;4995579;28;20533;-68
2023/12/18 01:56:30;;;;;;;2.40;1.70;;;21.40;53.40;;;;;;4980649;28;20551;-67
2023/12/18 01:58:59;;;;;;;2.08;1.50;;;21.40;53.40;;;;;;4981191;28;20034;-68
2023/12/18 02:01:26;;;;;;;2.07;1.57;;;21.40;53.50;;;;;;4980496;28;20026;-66
2023/12/18 02:03:53;;;;;;;2.45;1.70;;;21.40;53.50;;;;;;4981397;28;20269;-67
2023/12/18 02:06:21;;;;;;;2.10;1.50;;;21.40;53.50;;;;;;4981290;28;20101;-66
2023/12/18 02:08:47;;;;;;;2.47;1.50;;;21.30;53.40;;;;;;4979139;28;20085;-66
2023/12/18 02:11:13;;;;;;;2.40;1.65;;;21.40;53.50;;;;;;4978673;28;20422;-67
2023/12/18 02:13:42;;;;;;;2.33;1.60;;;21.30;53.50;;;;;;4993848;28;20085;-70
2023/12/18 02:16:08;;;;;;;2.58;1.70;;;21.30;53.50;;;;;;4979218;28;20487;-70
2023/12/18 02:18:34;;;;;;;2.90;1.60;;;21.30;53.50;;;;;;4980276;28;20034;-70
2023/12/18 02:21:00;;;;;;;2.00;1.40;;;21.30;53.60;;;;;;4980223;28;20510;-70
2023/12/18 02:23:25;;;;;;;2.47;1.67;;;21.30;53.60;;;;;;4978512;28;20030;-70
2023/12/18 02:25:51;;;;;;;2.80;1.65;;;21.30;53.70;;;;;;4979778;28;20479;-70
2023/12/18 02:28:17;;;;;;;3.00;1.70;;;21.30;53.60;;;;;;4979321;28;20542;-70
2023/12/18 02:30:44;;;;;;;2.25;1.30;;;21.20;53.60;;;;;;4978358;28;20561;-70
2023/12/18 02:33:09;;;;;;;1.90;1.40;;;21.20;53.60;;;;;;4978476;28;20030;-70
2023/12/18 02:35:35;;;;;;;2.30;1.50;;;21.20;53.60;;;;;;4978018;28;20498;-69
2023/12/18 02:38:01;;;;;;;2.55;1.50;;;21.20;53.60;;;;;;4978024;28;20102;-70
2023/12/18 02:40:26;;;;;;;2.63;1.50;;;21.20;53.70;;;;;;4979902;28;20080;-69
2023/12/18 02:42:52;;;;;;;2.20;1.60;;;21.20;53.70;;;;;;4982048;28;20031;-69
2023/12/18 02:45:18;;;;;;;2.70;1.60;;;21.20;53.70;;;;;;4980687;28;20646;-69
2023/12/18 02:47:44;;;;;;;2.40;1.50;;;21.20;53.70;;;;;;4982387;28;20042;-70
2023/12/18 02:50:10;;;;;;;2.90;1.50;;;21.10;53.70;;;;;;4980511;28;20027;-70
2023/12/18 02:52:36;;;;;;;2.25;1.58;;;21.10;53.70;;;;;;4980008;28;20026;-68
2023/12/18 02:55:01;;;;;;;2.30;1.42;;;21.10;53.70;;;;;;4977423;28;20027;-68
2023/12/18 02:57:27;;;;;;;1.95;1.40;;;21.10;53.80;;;;;;4979665;28;20402;-68
2023/12/18 02:59:53;;;;;;;2.20;1.50;;;21.10;53.70;;;;;;4980077;28;20042;-68
2023/12/18 03:02:19;;;;;;;2.17;1.42;;;21.10;53.80;;;;;;4980687;28;20473;-69
2023/12/18 03:04:44;;;;;;;2.00;1.40;;;21.10;53.70;;;;;;4979271;28;20542;-69
2023/12/18 03:07:11;;;;;;;1.83;1.35;;;21.10;53.80;;;;;;4978439;28;20035;-68
2023/12/18 03:09:37;;;;;;;2.15;1.45;;;21.10;53.80;;;;;;4976548;28;20066;-68
2023/12/18 03:12:03;;;;;;;2.15;1.50;;;21.10;53.80;;;;;;4979019;28;20483;-69
2023/12/18 03:14:28;;;;;;;2.38;1.40;;;21.10;53.80;;;;;;4979587;28;20110;-69
2023/12/18 03:16:54;;;;;;;1.88;1.30;;;21.00;53.80;;;;;;4979213;28;20035;-68
2023/12/18 03:19:19;;;;;;;2.25;1.50;;;21.00;53.80;;;;;;4977917;28;20081;-68
2023/12/18 03:21:45;;;;;;;2.47;1.50;;;21.00;53.80;;;;;;4978798;28;20030;-68
2023/12/18 03:24:11;;;;;;;2.08;1.38;;;21.00;53.80;;;;;;4977328;28;20034;-66
2023/12/18 03:26:37;;;;;;;1.98;1.30;;;21.00;53.80;;;;;;4977649;28;20383;-66
2023/12/18 03:29:02;;;;;;;1.90;1.20;;;21.00;53.90;;;;;;4978070;28;20062;-66
2023/12/18 03:31:28;;;;;;;2.60;1.40;;;21.00;53.80;;;;;;4978062;28;20501;-66
2023/12/18 03:33:54;;;;;;;2.10;1.40;;;21.00;53.90;;;;;;4978612;28;20371;-66
2023/12/18 03:36:19;;;;;;;2.03;1.38;;;21.00;53.90;;;;;;4991517;28;20077;-68
2023/12/18 03:38:45;;;;;;;2.10;1.30;;;21.00;53.90;;;;;;4995393;28;20036;-66
2023/12/18 03:41:10;;;;;;;2.38;1.38;;;20.90;53.80;;;;;;4980588;28;20582;-66
2023/12/18 03:43:36;;;;;;;2.13;1.30;;;20.90;53.80;;;;;;4983858;28;20121;-66
2023/12/18 03:46:02;;;;;;;2.38;1.20;;;20.90;53.80;;;;;;4983771;28;20107;-67
2023/12/18 03:48:27;;;;;;;2.20;1.30;;;20.90;53.90;;;;;;4981079;28;20501;-68
2023/12/18 03:50:53;;;;;;;2.08;1.27;;;20.90;53.90;;;;;;4981964;28;20029;-68
2023/12/18 03:53:18;;;;;;;1.70;1.20;;;20.90;53.90;;;;;;4982415;28;20483;-67
2023/12/18 03:55:44;;;;;;;1.63;1.30;;;20.90;53.90;;;;;;4979327;28;20046;-66
2023/12/18 03:58:10;;;;;;;2.33;1.58;;;20.90;53.90;;;;;;4982143;28;20407;-67
2023/12/18 04:00:35;;;;;;;1.70;1.20;;;20.90;53.90;;;;;;4982538;28;20025;-67
2023/12/18 04:03:04;;;;;;;2.13;1.40;;;20.90;53.90;;;;;;4996809;28;20073;-70
2023/12/18 04:05:29;;;;;;;1.57;1.13;;;20.90;53.90;;;;;;4981497;28;20490;-70
2023/12/18 04:07:55;;;;;;;2.00;1.30;;;20.90;54.40;;;;;;4982498;28;20026;-70
2023/12/18 04:10:21;;;;;;;1.88;1.23;;;20.90;53.90;;;;;;4981566;28;20042;-70
2023/12/18 04:12:46;;;;;;;1.83;1.25;;;20.80;53.90;;;;;;4982809;28;20027;-69
2023/12/18 04:15:12;;;;;;;1.80;1.38;;;20.90;53.90;;;;;;4998161;28;20463;-68
2023/12/18 04:17:37;;;;;;;1.90;1.20;;;20.80;53.90;;;;;;4996239;28;20026;-68
2023/12/18 04:20:04;;;;;;;2.08;1.50;;;20.80;53.90;;;;;;4983016;28;20035;-68
2023/12/18 04:22:30;;;;;;;1.70;1.20;;;20.90;53.90;;;;;;4982275;28;20031;-70
2023/12/18 04:24:56;;;;;;;2.33;1.40;;;20.80;53.90;;;;;;4981873;28;20152;-70
2023/12/18 04:27:21;;;;;;;2.35;1.40;;;20.80;53.90;;;;;;4980112;28;20451;-70
2023/12/18 04:29:47;;;;;;;1.80;1.23;;;20.80;54.40;;;;;;4981389;28;20033;-69
2023/12/18 04:32:12;;;;;;;1.70;1.20;;;20.80;53.90;;;;;;4981735;28;20019;-70
2023/12/18 04:34:39;;;;;;;2.17;1.55;;;20.80;53.90;;;;;;4980326;28;20491;-70
2023/12/18 04:37:05;;;;;;;1.63;1.10;;;20.80;53.90;;;;;;4995010;28;20019;-70
2023/12/18 04:39:32;;;;;;;2.20;1.20;;;20.80;54.00;;;;;;4982252;28;20031;-70
2023/12/18 04:41:58;;;;;;;1.70;1.20;;;20.80;54.00;;;;;;4979676;28;20117;-71
2023/12/18 04:44:23;;;;;;;1.48;1.17;;;20.70;53.90;;;;;;4980956;28;20490;-70
2023/12/18 04:46:49;;;;;;;1.80;1.13;;;20.80;54.00;;;;;;4981126;28;20109;-70
2023/12/18 04:49:15;;;;;;;1.52;1.10;;;20.80;54.00;;;;;;4981553;28;20030;-71
2023/12/18 04:51:40;;;;;;;1.63;1.08;;;20.70;53.90;;;;;;4980267;28;20612;-71
2023/12/18 04:54:06;;;;;;;2.60;1.20;;;20.80;54.00;;;;;;4979826;28;20506;-70
2023/12/18 04:56:31;;;;;;;1.52;1.00;;;20.70;54.00;;;;;;4981824;28;20026;-71
2023/12/18 04:58:57;;;;;;;1.60;1.10;;;20.70;53.90;;;;;;4982361;28;20486;-70
2023/12/18 05:01:22;;;;;;;1.58;1.10;;;20.70;54.00;;;;;;4997504;28;20776;-71
2023/12/18 05:03:48;;;;;;;1.42;1.05;;;20.70;54.00;;;;;;4981309;28;20100;-71
2023/12/18 05:06:22;;;;;;;1.58;1.10;;;20.70;54.00;;;;;;4979186;28;20129;-71
2023/12/18 05:08:48;;;;;;;1.10;0.90;;;20.70;54.10;;;;;;4979808;28;20022;-71
2023/12/18 05:11:20;;;;;;;1.73;1.10;;;20.70;54.10;;;;;;4994986;28;20483;-71
2023/12/18 05:13:46;;;;;;;1.77;1.20;;;20.70;54.10;;;;;;4980532;28;20446;-70
2023/12/18 05:16:13;;;;;;;1.98;1.30;;;20.60;54.00;;;;;;4982186;28;20030;-70
2023/12/18 05:18:39;;;;;;;1.75;1.30;;;20.70;54.10;;;;;;4980458;28;20034;-70
2023/12/18 05:21:05;;;;;;;1.63;1.20;;;20.60;54.10;;;;;;4981438;28;20461;-70
2023/12/18 05:23:30;;;;;;;1.50;1.10;;;20.70;54.10;;;;;;4981856;28;20029;-66
2023/12/18 05:25:56;;;;;;;2.00;1.10;;;20.60;54.10;;;;;;4978515;28;20121;-66
2023/12/18 05:28:22;;;;;;;1.85;1.20;;;20.60;54.10;;;;;;4981598;28;20141;-67
2023/12/18 05:30:48;;;;;;;2.20;1.40;;;20.60;54.20;;;;;;4981336;28;20037;-68
2023/12/18 05:33:13;;;;;;;1.40;1.10;;;20.60;54.20;;;;;;4979851;28;20441;-67
2023/12/18 05:35:39;;;;;;;1.33;1.00;;;20.60;54.20;;;;;;4996126;28;20022;-66
2023/12/18 05:38:07;;;;;;;1.45;1.10;;;20.60;54.20;;;;;;4995483;28;20081;-68
2023/12/18 05:40:33;;;;;;;1.38;0.93;;;20.50;54.30;;;;;;4982664;28;20023;-68
2023/12/18 05:42:59;;;;;;;1.20;0.93;;;20.60;54.40;;;;;;4980738;28;20030;-70
2023/12/18 05:45:25;;;;;;;1.80;1.30;;;20.50;54.30;;;;;;4981506;28;20110;-70
2023/12/18 05:47:50;;;;;;;1.35;1.00;;;20.50;54.30;;;;;;4979305;28;20933;-70
2023/12/18 05:50:16;;;;;;;1.40;1.00;;;20.50;54.40;;;;;;4976896;28;20033;-70
2023/12/18 05:52:42;;;;;;;1.63;1.00;;;20.50;54.40;;;;;;4978791;28;20031;-70
2023/12/18 05:55:10;;;;;;;1.20;0.90;;;20.50;54.40;;;;;;4980642;28;20088;-70
2023/12/18 05:57:38;;;;;;;1.40;1.02;;;20.50;54.40;;;;;;4979436;28;20109;-70
2023/12/18 06:00:05;;;;;;;1.75;1.15;;;20.50;54.50;;;;;;4994020;28;20034;-70
2023/12/18 06:02:31;;;;;;;1.17;1.00;;;20.40;54.40;;;;;;4978931;28;20474;-70
2023/12/18 06:04:57;;;;;;;1.10;0.93;;;20.50;54.50;;;;;;4979599;28;20037;-70
2023/12/18 06:07:22;;;;;;;1.35;1.02;;;20.40;54.50;;;;;;4981338;28;20081;-70
2023/12/18 06:09:48;;;;;;;1.52;1.00;;;20.40;54.50;;;;;;4980663;28;20054;-70
2023/12/18 06:12:14;;;;;;;1.58;1.20;;;20.40;54.50;;;;;;4977894;28;20089;-70
2023/12/18 06:14:39;;;;;;;1.25;1.10;;;20.40;54.50;;;;;;4980039;28;20031;-70
2023/12/18 06:17:06;;;;;;;1.40;0.90;;;20.40;54.60;;;;;;4976758;28;21155;-70
2023/12/18 06:19:31;;;;;;;1.45;1.00;;;20.40;54.60;;;;;;4979382;28;20035;-70
2023/12/18 06:21:57;;;;;;;1.48;1.02;;;20.40;54.60;;;;;;4978408;28;20043;-69
2023/12/18 06:24:23;;;;;;;1.20;1.00;;;20.40;54.60;;;;;;4992907;28;20035;-70
2023/12/18 06:26:48;;;;;;;1.55;1.02;;;20.40;54.60;;;;;;4979038;28;20105;-70
2023/12/18 06:29:14;;;;;;;1.40;1.00;;;20.40;54.60;;;;;;4995427;28;20023;-71
2023/12/18 06:31:39;;;;;;;1.65;1.10;;;20.30;54.60;;;;;;4980110;28;20088;-70
2023/12/18 06:34:05;;;;;;;1.20;0.90;;;20.40;54.70;;;;;;4979518;28;20030;-66
2023/12/18 06:36:31;;;;;;;1.17;0.90;;;20.40;54.70;;;;;;4980547;28;20423;-66
2023/12/18 06:38:56;;;;;;;1.25;1.00;;;20.30;54.60;;;;;;4978353;28;20030;-67
2023/12/18 06:41:22;;;;;;;1.65;1.10;;;20.30;54.70;;;;;;4980022;28;20121;-72
2023/12/18 06:43:48;;;;;;;1.30;1.00;;;20.30;54.70;;;;;;4979558;28;20093;-67
2023/12/18 06:46:13;;;;;;;1.88;1.13;;;20.40;54.80;;;;;;4980380;28;20038;-67
2023/12/18 06:48:42;;;;;;;1.50;1.10;;;20.30;54.70;;;;;;4982298;28;20049;-67
2023/12/18 06:51:11;;;;;;;1.37;1.03;;;20.30;54.70;;;;;;4977746;28;20031;-66
2023/12/18 06:53:37;;;;;;;1.50;1.10;;;20.30;54.90;;;;;;4978716;28;20030;-69
2023/12/18 06:56:03;;;;;;;1.02;0.82;;;20.30;55.10;;;;;;4990674;28;20109;-69
2023/12/18 06:58:28;;;;;;;1.33;0.90;;;20.30;55.00;;;;;;4978747;28;20044;-69
2023/12/18 07:00:54;;;;;;;1.33;0.93;;;20.30;55.00;;;;;;4978118;28;20039;-69
2023/12/18 07:03:20;;;;;;;2.38;1.00;;;20.30;55.10;;;;;;4994063;28;20027;-69
2023/12/18 07:05:46;;;;;;;1.98;1.00;;;20.30;55.00;;;;;;4978979;28;20054;-69
2023/12/18 07:08:11;;;;;;;2.20;1.08;;;20.30;55.00;;;;;;4979778;28;20029;-69
2023/12/18 07:10:37;;;;;;;1.08;0.90;;;20.30;55.00;;;;;;4979225;28;20387;-69
2023/12/18 07:13:03;;;;;;;1.80;1.00;;;20.30;55.00;;;;;;4976787;28;20035;-69
2023/12/18 07:15:29;;;;;;;1.35;0.90;;;20.30;55.00;;;;;;4983002;28;20026;-69
2023/12/18 07:17:54;;;;;;;2.00;1.10;;;20.30;55.00;;;;;;4982461;28;20125;-70
2023/12/18 07:20:20;;;;;;;1.90;1.10;;;20.30;55.00;;;;;;4983213;28;20034;-69
2023/12/18 07:22:46;;;;;;;1.52;1.15;;;20.30;55.00;;;;;;4995981;28;20128;-69
2023/12/18 07:25:11;;;;;;;1.55;1.00;;;20.30;55.00;;;;;;4984704;28;20104;-69
2023/12/18 07:27:37;;;;;;;1.20;0.95;;;20.30;55.00;;;;;;4982464;28;20026;-70
2023/12/18 07:30:03;;;;;;;1.48;1.02;;;20.20;54.90;;;;;;4984178;28;20487;-69
2023/12/18 07:32:33;;;;;;;1.35;0.90;;;20.30;55.00;;;;;;4984046;28;20368;-69
2023/12/18 07:35:02;;;;;;;;;;;20.30;55.00;;;;;;4998360;28;20034;-69
2023/12/18 07:37:28;;;;;;;1.05;0.80;;;20.30;55.00;;;;;;4983009;28;20347;-69
2023/12/18 07:39:55;;;;;;;3.15;1.20;;;20.30;55.00;;;;;;4982137;28;20515;-69
2023/12/18 07:42:21;;;;;;;1.83;0.90;;;20.30;55.00;;;;;;4984245;28;20034;-67
2023/12/18 07:44:47;;;;;;;2.10;1.20;;;20.20;55.00;;;;;;4984539;28;20194;-67
2023/12/18 07:47:13;;;;;;;2.15;0.90;;;20.20;55.00;;;;;;4982876;28;20031;-66
2023/12/18 07:49:39;;;;;;;1.73;1.05;;;20.20;55.00;;;;;;4982901;28;20035;-67
2023/12/18 07:52:05;;;;;;;2.60;1.23;;;20.20;55.00;;;;;;4981770;28;20049;-68
2023/12/18 07:54:30;;;;;;;2.38;1.30;;;20.20;55.00;;;;;;4983455;28;20061;-68
2023/12/18 07:56:56;;;;;;;1.73;1.08;;;20.20;55.00;;;;;;4982994;28;20022;-68
2023/12/18 07:59:21;;;;;;;1.50;0.98;;;20.20;55.00;;;;;;4983434;28;20041;-67
2023/12/18 08:01:47;;;;;;;1.88;1.00;;;20.20;55.00;;;;;;4983599;28;20046;-69
2023/12/18 08:04:13;;;;;;;1.50;1.00;;;20.20;55.00;;;;;;4982363;28;20037;-69
2023/12/18 08:06:39;;;;;;;2.80;1.10;;;20.20;55.00;;;;;;4983429;28;20047;-69
2023/12/18 08:09:04;;;;;;;1.70;0.90;;;20.20;55.00;;;;;;4981697;28;20041;-69
2023/12/18 08:11:30;;;;;;;2.53;1.15;;;20.20;55.00;;;;;;4981647;28;20027;-70
2023/12/18 08:13:56;;;;;;;2.35;1.27;;;20.20;55.00;;;;;;4981144;28;20057;-69
2023/12/18 08:16:23;;;;;;;2.75;1.10;;;20.20;55.10;;;;;;4983035;28;20038;-70
2023/12/18 08:18:49;;;;;;;2.13;1.10;;;20.20;55.10;;;;;;4981889;28;20792;-69
2023/12/18 08:21:15;;;;;;;2.15;1.25;;;20.20;55.10;;;;;;4981661;28;20039;-69
2023/12/18 08:23:41;;;;;;;2.53;1.40;;;20.20;55.10;;;;;;4982125;28;20030;-69
2023/12/18 08:26:09;;;;;;;2.00;1.10;;;20.20;55.10;;;;;;4981158;28;20030;-69
2023/12/18 08:28:34;;;;;;;2.65;1.20;;;20.10;55.00;;;;;;4998007;28;20486;-69
2023/12/18 08:31:00;;;;;;;1.83;1.05;;;20.20;55.10;;;;;;4985029;28;20072;-69
2023/12/18 08:33:25;;;;;;;1.85;1.27;;;20.10;55.10;;;;;;4982907;28;20053;-69
2023/12/18 08:35:51;;;;;;;1.95;1.00;;;20.10;55.00;;;;;;4981888;28;20033;-70
2023/12/18 08:38:16;;;;;;;2.78;1.30;;;20.10;55.00;;;;;;4980996;28;20033;-69
2023/12/18 08:40:43;;;;;;;2.08;1.05;;;20.10;55.00;;;;;;4979118;28;20105;-69
2023/12/18 08:43:10;;;;;;;2.70;1.20;;;20.10;55.10;;;;;;4979789;28;20046;-70
2023/12/18 08:45:36;;;;;;;1.73;1.15;;;20.10;55.10;;;;;;4982847;28;20074;-69
2023/12/18 08:48:02;;;;;;;2.05;1.20;;;20.10;55.10;;;;;;4983134;28;20484;-69
2023/12/18 08:50:28;;;;;;;2.05;1.10;;;20.20;55.10;;;;;;4980457;28;20034;-69
2023/12/18 08:52:54;;;;;;;3.20;1.27;;;20.10;55.00;;;;;;4983011;28;20041;-70
2023/12/18 08:55:19;;;;;;;2.45;1.20;;;20.10;55.10;;;;;;4980847;28;20022;-70
2023/12/18 08:57:45;;;;;;;2.30;1.30;;;20.10;55.10;;;;;;4979922;28;20109;-70
2023/12/18 09:00:14;;;;;;;2.65;1.00;;;20.10;55.10;;;;;;4978927;28;20102;-70
2023/12/18 09:02:40;;;;;;;1.98;1.13;;;20.10;55.10;;;;;;4980461;28;20027;-70
2023/12/18 09:05:07;;;;;;;2.15;1.20;;;20.10;55.10;;;;;;4982260;28;20034;-70
2023/12/18 09:07:32;;;;;;;2.58;1.30;;;20.10;55.10;;;;;;4980897;28;20134;-70
2023/12/18 09:09:58;;;;;;;2.40;1.10;;;20.10;55.10;;;;;;4995448;28;20145;-70
2023/12/18 09:12:23;;;;;;;2.00;1.08;;;20.10;55.10;;;;;;4979946;28;20022;-70
2023/12/18 09:14:49;;;;;;;1.92;1.10;;;20.10;55.10;;;;;;4991307;28;20026;-69
2023/12/18 09:17:15;;;;;;;2.15;1.38;;;20.10;55.10;;;;;;4980833;28;20034;-70
2023/12/18 09:19:40;;;;;;;1.90;1.10;;;20.10;55.10;;;;;;4996019;28;20031;-69
2023/12/18 09:22:06;;;;;;;2.25;1.20;;;20.10;55.10;;;;;;4980720;28;20062;-69
2023/12/18 09:24:31;;;;;;;1.90;1.17;;;20.00;55.10;;;;;;4979225;28;20034;-69
2023/12/18 09:26:57;;;;;;;2.28;1.50;;;20.00;55.20;;;;;;4994904;28;20267;-69
2023/12/18 09:29:23;;;;;;;1.85;1.20;;;20.10;55.10;;;;;;4978660;28;20058;-70
2023/12/18 09:31:49;;;;;;;2.53;1.27;;;20.00;55.10;;;;;;4980649;28;20034;-69
2023/12/18 09:34:16;;;;;;;2.35;1.30;;;20.00;55.10;;;;;;4980332;28;20057;-69
2023/12/18 09:36:41;;;;;;;2.65;1.10;;;20.00;55.10;;;;;;4980785;28;20136;-69
2023/12/18 09:39:07;;;;;;;1.52;0.98;;;20.00;55.10;;;;;;4979336;28;20498;-69
2023/12/18 09:41:33;;;;;;;2.50;1.10;;;20.00;55.10;;;;;;4979735;28;20038;-69
2023/12/18 09:43:59;;;;;;;2.33;1.40;;;20.00;55.10;;;;;;4978561;28;20061;-70
2023/12/18 09:46:25;;;;;;;2.28;1.13;;;20.00;55.10;;;;;;4979201;28;20027;-69
2023/12/18 09:48:52;;;;;;;2.63;1.30;;;20.00;55.10;;;;;;4978505;28;20130;-69
2023/12/18 09:51:21;;;;;;;1.85;1.10;;;20.00;55.10;;;;;;4980731;28;20106;-69
2023/12/18 09:53:47;;;;;;;2.10;1.20;;;20.00;55.20;;;;;;4980255;28;20142;-69
2023/12/18 09:56:13;;;;;;;2.33;1.38;;;20.00;55.10;;;;;;4981486;28;20506;-69
2023/12/18 09:58:40;;;;;;;2.40;1.20;;;20.00;55.20;;;;;;4980406;28;20038;-69
2023/12/18 10:01:06;;;;;;;1.75;1.08;;;20.00;55.20;;;;;;4981633;28;20038;-69
2023/12/18 10:03:32;;;;;;;1.92;1.10;;;20.00;55.10;;;;;;4980880;28;20076;-69
2023/12/18 10:05:58;;;;;;;2.58;1.10;;;20.00;55.20;;;;;;4978221;28;20058;-69
2023/12/18 10:08:23;;;;;;;2.85;1.27;;;20.00;55.20;;;;;;4980315;28;20022;-69
2023/12/18 10:10:50;;;;;;;2.30;1.25;;;20.00;55.10;;;;;;4979665;28;20514;-69
2023/12/18 10:13:15;;;;;;;2.85;1.15;;;20.00;55.20;;;;;;4978221;28;20111;-67
2023/12/18 10:15:42;;;;;;;1.85;1.10;;;20.00;55.10;;;;;;4981013;28;20046;-67
2023/12/18 10:18:09;;;;;;;3.00;1.17;;;20.00;55.10;;;;;;4982364;28;20527;-67
2023/12/18 10:20:36;;;;;;;2.05;1.00;;;19.90;55.10;;;;;;4982685;28;20026;-66
2023/12/18 10:23:03;;;;;;;2.00;1.10;;;20.00;55.20;;;;;;4980779;28;20076;-69
2023/12/18 10:25:31;;;;;;;1.80;1.10;;;20.00;55.20;;;;;;4978552;28;20023;-69
2023/12/18 10:27:57;;;;;;;1.98;1.13;;;20.00;55.20;;;;;;4994753;28;20402;-70
2023/12/18 10:30:29;;;;;;;1.70;1.00;;;19.90;55.20;;;;;;4978503;28;20656;-69
2023/12/18 10:32:56;;;;;;;1.95;1.10;;;19.90;55.20;;;;;;4976273;28;20027;-69
2023/12/18 10:35:22;;;;;;;2.42;1.20;;;19.90;55.10;;;;;;4980440;28;20059;-69
2023/12/18 10:37:52;;;;;;;2.05;1.20;;;19.90;55.20;;;;;;4995241;28;20516;-69
2023/12/18 10:40:19;;;;;;;1.55;1.00;;;19.90;55.10;;;;;;4979287;28;20073;-69
2023/12/18 10:43:08;;;;;;;1.55;1.00;;;19.90;55.10;;;;;;4979009;28;20031;-69
2023/12/18 10:45:34;;;;;;;1.90;1.30;;;19.90;55.20;;;;;;4978089;28;20459;-69
2023/12/18 10:48:01;;;;;;;1.98;1.10;;;19.90;55.10;;;;;;4980494;28;20042;-69
2023/12/18 10:50:32;;;;;;;2.15;1.17;;;19.90;55.20;;;;;;4981986;28;20093;-69
2023/12/18 10:52:59;;;;;;;2.22;1.10;;;19.90;55.20;;;;;;4981366;28;20446;-69
2023/12/18 10:55:26;;;;;;;1.80;1.15;;;19.90;55.20;;;;;;4984703;28;20077;-69
2023/12/18 10:57:54;;;;;;;1.73;1.00;;;19.90;55.20;;;;;;4982075;28;20038;-69
2023/12/18 11:00:21;;;;;;;1.90;1.10;;;19.90;55.20;;;;;;4981318;28;20038;-70
2023/12/18 11:02:49;;;;;;;2.33;1.27;;;19.90;55.20;;;;;;4998600;28;20130;-69
2023/12/18 11:05:15;;;;;;;2.20;1.30;;;19.90;55.20;;;;;;4988185;28;20998;-69
2023/12/18 11:07:42;;;;;;;2.03;1.05;;;19.90;55.20;;;;;;4981245;28;20530;-69
2023/12/18 11:10:08;;;;;;;1.80;0.98;;;19.90;55.20;;;;;;4982538;28;20034;-69
2023/12/18 11:12:37;;;;;;;1.70;1.08;;;19.90;55.20;;;;;;4981571;28;20093;-69
2023/12/18 11:15:29;;;;;;;2.53;1.08;;;19.90;55.20;;;;;;4996197;28;20487;-69
2023/12/18 11:18:06;;;;;;;1.60;1.00;;;19.90;55.20;;;;;;4982158;28;20033;-69
2023/12/18 11:20:39;;;;;;;2.10;1.00;;;19.90;55.20;;;;;;4983104;28;20065;-69
2023/12/18 11:23:05;;;;;;;1.90;1.17;;;19.80;55.10;;;;;;4984691;28;20050;-69
2023/12/18 11:25:32;;;;;;;1.73;1.13;;;19.80;55.10;;;;;;4998357;28;20049;-69
2023/12/18 11:28:04;;;;;;;1.95;1.10;;;19.80;55.20;;;;;;4996552;28;20069;-69
2023/12/18 11:30:31;;;;;;;1.90;1.15;;;19.90;55.20;;;;;;4982109;28;20134;-69
2023/12/18 11:32:58;;;;;;;2.08;1.10;;;19.90;55.20;;;;;;4986548;28;20127;-69
2023/12/18 11:35:34;;;;;;;1.70;1.00;;;19.80;55.20;;;;;;4983180;28;20046;-69
2023/12/18 11:38:09;;;;;;;2.70;1.15;;;19.80;55.20;;;;;;4981677;28;20065;-69
2023/12/18 11:40:36;;;;;;;2.10;1.38;;;19.80;55.20;;;;;;4983015;28;20106;-69
2023/12/18 11:43:03;;;;;;;2.20;1.10;;;19.80;55.20;;;;;;4983733;28;20034;-69
2023/12/18 11:45:29;;;;;;;2.47;1.20;;;19.80;55.20;;;;;;4982951;28;20050;-68
2023/12/18 11:47:57;;;;;;;1.98;1.10;;;19.80;55.20;;;;;;4981921;28;20038;-69
2023/12/18 11:50:26;;;;;;;1.83;1.10;;;19.80;55.20;;;;;;4981115;28;20438;-69
2023/12/18 11:52:56;;;;;;;2.22;1.50;;;19.80;55.20;;;;;;4997003;28;20026;-69
2023/12/18 11:55:36;;;;;;;2.25;1.30;;;19.80;55.20;;;;;;4981639;28;20474;-69
2023/12/18 11:58:03;;;;;;;2.03;1.20;;;19.80;55.20;;;;;;4981320;28;20082;-69
2023/12/18 12:00:33;;;;;;;2.33;1.20;;;19.80;55.80;;;;;;4980708;28;20042;-69
2023/12/18 12:02:59;;;;;;;2.58;1.30;;;19.80;55.20;;;;;;4979837;28;20042;-69
2023/12/18 12:05:25;;;;;;;1.77;1.23;;;19.80;55.30;;;;;;4983022;28;20034;-69
2023/12/18 12:07:54;;;;;;;1.80;1.13;;;19.80;55.30;;;;;;4983503;28;20394;-69
2023/12/18 12:10:21;;;;;;;2.03;1.20;;;19.80;55.20;;;;;;4998322;28;20456;-69
2023/12/18 12:12:57;;;;;;;1.40;1.10;;;19.80;55.30;;;;;;4982947;28;20041;-69
2023/12/18 12:15:27;;;;;;;1.50;1.20;;;19.80;55.30;;;;;;4982030;28;20117;-69
2023/12/18 12:18:04;;;;;;;2.05;1.20;;;19.80;55.20;;;;;;4981377;28;20033;-69
2023/12/18 12:20:31;;;;;;;1.77;1.15;;;19.80;55.30;;;;;;4982084;28;20038;-70
2023/12/18 12:22:56;;;;;;;2.40;1.20;;;19.80;55.30;;;;;;4982029;28;20049;-70
2023/12/18 12:25:22;;;;;;;1.52;1.10;;;19.80;55.30;;;;;;4981822;28;20031;-70
2023/12/18 12:27:47;;;;;;;1.73;1.20;;;19.80;55.30;;;;;;4981618;28;20019;-70
2023/12/18 12:30:13;;;;;;;2.22;1.10;;;19.80;55.30;;;;;;4982931;28;20479;-70
2023/12/18 12:32:40;;;;;;;2.17;1.35;;;19.80;55.30;;;;;;4981852;28;20035;-68
2023/12/18 12:35:09;;;;;;;3.80;1.30;;;19.80;55.30;;;;;;4981916;28;20093;-68
2023/12/18 12:37:35;;;;;;;2.35;1.40;;;19.70;55.20;;;;;;4997953;28;20023;-70
2023/12/18 12:40:07;;;;;;;2.40;1.30;;;19.80;55.20;;;;;;4981520;28;20117;-68
2023/12/18 12:42:37;;;;;;;2.55;1.40;;;19.80;55.30;;;;;;4982915;28;20112;-70
2023/12/18 12:45:04;;;;;;;2.03;1.20;;;19.80;55.30;;;;;;4979497;28;20076;-71